sensor_id;sensor_type;location;lat;lon;timestamp;P1;durP1;ratioP1;P2;durP2;ratioP2
37141;SDS011;23041;49.816;20.092;2022-08-23T00:04:35;4.78;;;4.37;;
37141;SDS011;23041;49.816;20.092;2022-08-23T00:07:05;5.45;;;4.95;;
37141;SDS011;23041;49.816;20.092;2022-08-23T00:09:34;7.42;;;4.30;;
37141;SDS011;23041;49.816;20.092;2022-08-23T00:12:03;6.83;;;5.65;;
37141;SDS011;23041;49.816;20.092;2022-08-23T00:14:34;5.08;;;4.67;;
37141;SDS011;23041;49.816;20.092;2022-08-23T00:17:04;4.78;;;4.37;;
37141;SDS011;23041;49.816;20.092;2022-08-23T00:19:33;4.75;;;4.35;;
37141;SDS011;23041;49.816;20.092;2022-08-23T00:22:00;6.12;;;5.60;;
37141;SDS011;23041;49.816;20.092;2022-08-23T00:24:27;6.95;;;5.05;;
37141;SDS011;23041;49.816;20.092;2022-08-23T00:29:51;7.33;;;5.55;;
37141;SDS011;23041;49.816;20.092;2022-08-23T00:32:24;6.37;;;5.78;;
37141;SDS011;23041;49.816;20.092;2022-08-23T00:34:50;6.42;;;5.40;;
37141;SDS011;23041;49.816;20.092;2022-08-23T00:37:18;5.47;;;5.05;;
37141;SDS011;23041;49.816;20.092;2022-08-23T00:39:45;4.58;;;4.05;;
37141;SDS011;23041;49.816;20.092;2022-08-23T00:42:14;6.05;;;4.90;;
37141;SDS011;23041;49.816;20.092;2022-08-23T00:45:19;5.55;;;5.05;;
37141;SDS011;23041;49.816;20.092;2022-08-23T00:48:07;7.22;;;5.20;;
37141;SDS011;23041;49.816;20.092;2022-08-23T00:50:36;6.33;;;5.72;;
37141;SDS011;23041;49.816;20.092;2022-08-23T00:53:14;8.15;;;5.78;;
37141;SDS011;23041;49.816;20.092;2022-08-23T00:55:44;6.70;;;6.00;;
37141;SDS011;23041;49.816;20.092;2022-08-23T00:58:13;6.00;;;5.40;;
37141;SDS011;23041;49.816;20.092;2022-08-23T01:00:45;8.40;;;5.12;;
37141;SDS011;23041;49.816;20.092;2022-08-23T01:03:13;6.70;;;6.00;;
37141;SDS011;23041;49.816;20.092;2022-08-23T01:08:38;10.10;;;5.83;;
37141;SDS011;23041;49.816;20.092;2022-08-23T01:11:10;8.03;;;5.58;;
37141;SDS011;23041;49.816;20.092;2022-08-23T01:14:25;5.47;;;4.97;;
37141;SDS011;23041;49.816;20.092;2022-08-23T01:16:21;5.97;;;5.35;;
37141;SDS011;23041;49.816;20.092;2022-08-23T01:18:59;5.83;;;4.72;;
37141;SDS011;23041;49.816;20.092;2022-08-23T01:21:33;6.40;;;5.45;;
37141;SDS011;23041;49.816;20.092;2022-08-23T01:24:05;5.58;;;5.00;;
37141;SDS011;23041;49.816;20.092;2022-08-23T01:26:33;7.72;;;5.62;;
37141;SDS011;23041;49.816;20.092;2022-08-23T01:29:00;6.05;;;5.37;;
37141;SDS011;23041;49.816;20.092;2022-08-23T01:31:29;6.45;;;5.85;;
37141;SDS011;23041;49.816;20.092;2022-08-23T01:33:57;6.22;;;5.22;;
37141;SDS011;23041;49.816;20.092;2022-08-23T01:36:27;7.22;;;5.60;;
37141;SDS011;23041;49.816;20.092;2022-08-23T01:38:55;7.78;;;6.08;;
37141;SDS011;23041;49.816;20.092;2022-08-23T01:41:21;7.42;;;6.80;;
37141;SDS011;23041;49.816;20.092;2022-08-23T01:43:48;7.80;;;7.10;;
37141;SDS011;23041;49.816;20.092;2022-08-23T01:46:17;7.10;;;6.50;;
37141;SDS011;23041;49.816;20.092;2022-08-23T01:48:47;7.35;;;6.75;;
37141;SDS011;23041;49.816;20.092;2022-08-23T01:51:16;9.78;;;7.10;;
37141;SDS011;23041;49.816;20.092;2022-08-23T01:53:45;7.17;;;6.62;;
37141;SDS011;23041;49.816;20.092;2022-08-23T01:56:12;7.75;;;5.95;;
37141;SDS011;23041;49.816;20.092;2022-08-23T01:58:40;8.05;;;6.45;;
37141;SDS011;23041;49.816;20.092;2022-08-23T02:01:06;8.85;;;6.17;;
37141;SDS011;23041;49.816;20.092;2022-08-23T02:03:33;6.42;;;5.67;;
37141;SDS011;23041;49.816;20.092;2022-08-23T02:06:01;7.12;;;6.45;;
37141;SDS011;23041;49.816;20.092;2022-08-23T02:08:29;7.62;;;6.15;;
37141;SDS011;23041;49.816;20.092;2022-08-23T02:11:14;7.75;;;6.28;;
37141;SDS011;23041;49.816;20.092;2022-08-23T02:16:10;6.17;;;5.67;;
37141;SDS011;23041;49.816;20.092;2022-08-23T02:18:37;5.90;;;5.40;;
37141;SDS011;23041;49.816;20.092;2022-08-23T02:21:05;6.28;;;5.70;;
37141;SDS011;23041;49.816;20.092;2022-08-23T02:23:32;7.92;;;6.30;;
37141;SDS011;23041;49.816;20.092;2022-08-23T02:25:59;11.12;;;6.60;;
37141;SDS011;23041;49.816;20.092;2022-08-23T02:28:26;6.65;;;6.05;;
37141;SDS011;23041;49.816;20.092;2022-08-23T02:30:52;6.87;;;6.25;;
37141;SDS011;23041;49.816;20.092;2022-08-23T02:33:19;6.65;;;6.00;;
37141;SDS011;23041;49.816;20.092;2022-08-23T02:35:45;6.80;;;6.12;;
37141;SDS011;23041;49.816;20.092;2022-08-23T02:38:12;6.90;;;6.05;;
37141;SDS011;23041;49.816;20.092;2022-08-23T02:40:39;6.92;;;6.33;;
37141;SDS011;23041;49.816;20.092;2022-08-23T02:43:06;7.35;;;5.95;;
37141;SDS011;23041;49.816;20.092;2022-08-23T02:45:33;8.40;;;6.75;;
37141;SDS011;23041;49.816;20.092;2022-08-23T02:48:01;7.05;;;6.22;;
37141;SDS011;23041;49.816;20.092;2022-08-23T02:50:27;6.80;;;6.15;;
37141;SDS011;23041;49.816;20.092;2022-08-23T02:52:54;6.72;;;5.75;;
37141;SDS011;23041;49.816;20.092;2022-08-23T02:55:23;6.47;;;5.97;;
37141;SDS011;23041;49.816;20.092;2022-08-23T02:57:50;6.53;;;5.92;;
37141;SDS011;23041;49.816;20.092;2022-08-23T03:00:17;7.15;;;6.50;;
37141;SDS011;23041;49.816;20.092;2022-08-23T03:02:44;7.95;;;6.50;;
37141;SDS011;23041;49.816;20.092;2022-08-23T03:05:11;7.08;;;6.17;;
37141;SDS011;23041;49.816;20.092;2022-08-23T03:07:39;6.83;;;5.80;;
37141;SDS011;23041;49.816;20.092;2022-08-23T03:10:06;6.95;;;6.25;;
37141;SDS011;23041;49.816;20.092;2022-08-23T03:12:33;7.25;;;6.15;;
37141;SDS011;23041;49.816;20.092;2022-08-23T03:15:00;7.30;;;6.58;;
37141;SDS011;23041;49.816;20.092;2022-08-23T03:17:28;8.15;;;7.00;;
37141;SDS011;23041;49.816;20.092;2022-08-23T03:19:55;7.15;;;6.47;;
37141;SDS011;23041;49.816;20.092;2022-08-23T03:22:22;7.65;;;6.53;;
37141;SDS011;23041;49.816;20.092;2022-08-23T03:24:48;6.62;;;6.08;;
37141;SDS011;23041;49.816;20.092;2022-08-23T03:27:15;6.58;;;5.95;;
37141;SDS011;23041;49.816;20.092;2022-08-23T03:29:41;8.13;;;6.67;;
37141;SDS011;23041;49.816;20.092;2022-08-23T03:32:07;8.90;;;6.50;;
37141;SDS011;23041;49.816;20.092;2022-08-23T03:34:34;7.47;;;6.45;;
37141;SDS011;23041;49.816;20.092;2022-08-23T03:37:00;7.80;;;7.10;;
37141;SDS011;23041;49.816;20.092;2022-08-23T03:39:27;8.85;;;6.80;;
37141;SDS011;23041;49.816;20.092;2022-08-23T03:41:54;8.35;;;7.55;;
37141;SDS011;23041;49.816;20.092;2022-08-23T03:44:20;11.00;;;6.90;;
37141;SDS011;23041;49.816;20.092;2022-08-23T03:46:46;7.50;;;6.90;;
37141;SDS011;23041;49.816;20.092;2022-08-23T03:49:13;8.03;;;7.22;;
37141;SDS011;23041;49.816;20.092;2022-08-23T03:51:40;9.23;;;7.87;;
37141;SDS011;23041;49.816;20.092;2022-08-23T03:54:06;7.72;;;6.92;;
37141;SDS011;23041;49.816;20.092;2022-08-23T03:56:35;9.65;;;7.40;;
37141;SDS011;23041;49.816;20.092;2022-08-23T03:59:06;7.58;;;6.87;;
37141;SDS011;23041;49.816;20.092;2022-08-23T04:01:35;9.30;;;7.25;;
37141;SDS011;23041;49.816;20.092;2022-08-23T04:04:03;7.75;;;7.05;;
37141;SDS011;23041;49.816;20.092;2022-08-23T04:06:30;7.87;;;7.25;;
37141;SDS011;23041;49.816;20.092;2022-08-23T04:08:57;11.75;;;7.60;;
37141;SDS011;23041;49.816;20.092;2022-08-23T04:11:25;8.40;;;6.80;;
37141;SDS011;23041;49.816;20.092;2022-08-23T04:13:52;7.92;;;7.12;;
37141;SDS011;23041;49.816;20.092;2022-08-23T04:16:19;8.70;;;7.90;;
37141;SDS011;23041;49.816;20.092;2022-08-23T04:18:45;11.05;;;7.55;;
37141;SDS011;23041;49.816;20.092;2022-08-23T04:21:17;7.30;;;6.55;;
37141;SDS011;23041;49.816;20.092;2022-08-23T04:23:44;9.48;;;7.00;;
37141;SDS011;23041;49.816;20.092;2022-08-23T04:26:10;8.60;;;7.08;;
37141;SDS011;23041;49.816;20.092;2022-08-23T04:28:37;7.90;;;7.20;;
37141;SDS011;23041;49.816;20.092;2022-08-23T04:31:04;8.05;;;7.33;;
37141;SDS011;23041;49.816;20.092;2022-08-23T04:33:31;7.20;;;6.58;;
37141;SDS011;23041;49.816;20.092;2022-08-23T04:35:59;6.92;;;6.33;;
37141;SDS011;23041;49.816;20.092;2022-08-23T04:38:27;6.90;;;6.12;;
37141;SDS011;23041;49.816;20.092;2022-08-23T04:40:54;8.05;;;6.90;;
37141;SDS011;23041;49.816;20.092;2022-08-23T04:43:39;8.85;;;6.85;;
37141;SDS011;23041;49.816;20.092;2022-08-23T04:46:08;7.80;;;7.20;;
37141;SDS011;23041;49.816;20.092;2022-08-23T04:48:37;8.08;;;6.78;;
37141;SDS011;23041;49.816;20.092;2022-08-23T04:51:04;7.92;;;7.12;;
37141;SDS011;23041;49.816;20.092;2022-08-23T04:53:32;7.47;;;6.87;;
37141;SDS011;23041;49.816;20.092;2022-08-23T04:56:00;9.00;;;6.85;;
37141;SDS011;23041;49.816;20.092;2022-08-23T04:58:28;7.00;;;6.00;;
37141;SDS011;23041;49.816;20.092;2022-08-23T05:00:57;8.15;;;6.87;;
37141;SDS011;23041;49.816;20.092;2022-08-23T05:03:26;7.28;;;6.58;;
37141;SDS011;23041;49.816;20.092;2022-08-23T05:05:55;7.58;;;6.90;;
37141;SDS011;23041;49.816;20.092;2022-08-23T05:08:23;9.13;;;6.75;;
37141;SDS011;23041;49.816;20.092;2022-08-23T05:10:50;7.50;;;6.53;;
37141;SDS011;23041;49.816;20.092;2022-08-23T05:13:17;6.75;;;6.25;;
37141;SDS011;23041;49.816;20.092;2022-08-23T05:15:45;7.10;;;5.85;;
37141;SDS011;23041;49.816;20.092;2022-08-23T05:18:11;8.65;;;6.03;;
37141;SDS011;23041;49.816;20.092;2022-08-23T05:20:38;7.08;;;5.90;;
37141;SDS011;23041;49.816;20.092;2022-08-23T05:23:04;7.25;;;6.55;;
37141;SDS011;23041;49.816;20.092;2022-08-23T05:25:31;12.18;;;7.10;;
37141;SDS011;23041;49.816;20.092;2022-08-23T05:28:17;6.70;;;6.12;;
37141;SDS011;23041;49.816;20.092;2022-08-23T05:31:21;6.15;;;5.60;;
37141;SDS011;23041;49.816;20.092;2022-08-23T05:33:28;6.45;;;5.85;;
37141;SDS011;23041;49.816;20.092;2022-08-23T05:35:57;7.77;;;5.80;;
37141;SDS011;23041;49.816;20.092;2022-08-23T05:38:24;6.60;;;6.10;;
37141;SDS011;23041;49.816;20.092;2022-08-23T05:40:52;6.95;;;5.95;;
37141;SDS011;23041;49.816;20.092;2022-08-23T05:43:22;6.50;;;5.90;;
37141;SDS011;23041;49.816;20.092;2022-08-23T05:46:00;5.60;;;5.10;;
37141;SDS011;23041;49.816;20.092;2022-08-23T05:48:26;6.20;;;5.70;;
37141;SDS011;23041;49.816;20.092;2022-08-23T05:50:53;8.03;;;5.70;;
37141;SDS011;23041;49.816;20.092;2022-08-23T05:53:20;8.30;;;5.50;;
37141;SDS011;23041;49.816;20.092;2022-08-23T05:55:46;6.35;;;5.75;;
37141;SDS011;23041;49.816;20.092;2022-08-23T05:58:12;6.17;;;4.67;;
37141;SDS011;23041;49.816;20.092;2022-08-23T06:00:39;5.10;;;4.70;;
37141;SDS011;23041;49.816;20.092;2022-08-23T06:03:05;5.25;;;4.72;;
37141;SDS011;23041;49.816;20.092;2022-08-23T06:05:33;6.55;;;5.47;;
37141;SDS011;23041;49.816;20.092;2022-08-23T06:08:06;5.67;;;5.28;;
37141;SDS011;23041;49.816;20.092;2022-08-23T06:10:34;7.35;;;5.30;;
37141;SDS011;23041;49.816;20.092;2022-08-23T06:13:01;5.00;;;4.60;;
37141;SDS011;23041;49.816;20.092;2022-08-23T06:15:29;5.37;;;4.95;;
37141;SDS011;23041;49.816;20.092;2022-08-23T06:17:56;5.95;;;4.80;;
37141;SDS011;23041;49.816;20.092;2022-08-23T06:20:23;5.40;;;4.85;;
37141;SDS011;23041;49.816;20.092;2022-08-23T06:22:49;4.83;;;4.25;;
37141;SDS011;23041;49.816;20.092;2022-08-23T06:25:16;5.50;;;5.10;;
37141;SDS011;23041;49.816;20.092;2022-08-23T06:27:42;5.03;;;4.30;;
37141;SDS011;23041;49.816;20.092;2022-08-23T06:30:09;6.22;;;4.85;;
37141;SDS011;23041;49.816;20.092;2022-08-23T06:32:36;5.53;;;5.08;;
37141;SDS011;23041;49.816;20.092;2022-08-23T06:35:03;4.90;;;4.60;;
37141;SDS011;23041;49.816;20.092;2022-08-23T06:37:30;5.42;;;5.03;;
37141;SDS011;23041;49.816;20.092;2022-08-23T06:39:56;4.75;;;4.40;;
37141;SDS011;23041;49.816;20.092;2022-08-23T06:42:23;5.60;;;4.45;;
37141;SDS011;23041;49.816;20.092;2022-08-23T06:44:49;4.65;;;4.22;;
37141;SDS011;23041;49.816;20.092;2022-08-23T06:47:17;4.70;;;4.40;;
37141;SDS011;23041;49.816;20.092;2022-08-23T06:49:43;4.45;;;4.05;;
37141;SDS011;23041;49.816;20.092;2022-08-23T06:52:09;5.47;;;4.12;;
37141;SDS011;23041;49.816;20.092;2022-08-23T06:54:37;4.28;;;3.98;;
37141;SDS011;23041;49.816;20.092;2022-08-23T06:57:04;6.42;;;4.45;;
37141;SDS011;23041;49.816;20.092;2022-08-23T06:59:30;4.55;;;4.25;;
37141;SDS011;23041;49.816;20.092;2022-08-23T07:01:58;4.70;;;4.40;;
37141;SDS011;23041;49.816;20.092;2022-08-23T07:04:28;4.65;;;4.30;;
37141;SDS011;23041;49.816;20.092;2022-08-23T07:07:04;4.28;;;3.98;;
37141;SDS011;23041;49.816;20.092;2022-08-23T07:09:32;4.58;;;4.28;;
37141;SDS011;23041;49.816;20.092;2022-08-23T07:11:59;4.70;;;4.30;;
37141;SDS011;23041;49.816;20.092;2022-08-23T07:14:26;4.03;;;3.72;;
37141;SDS011;23041;49.816;20.092;2022-08-23T07:16:54;4.17;;;3.83;;
37141;SDS011;23041;49.816;20.092;2022-08-23T07:19:25;4.35;;;3.95;;
37141;SDS011;23041;49.816;20.092;2022-08-23T07:21:55;3.50;;;3.30;;
37141;SDS011;23041;49.816;20.092;2022-08-23T07:24:23;4.40;;;4.10;;
37141;SDS011;23041;49.816;20.092;2022-08-23T07:26:51;4.37;;;3.95;;
37141;SDS011;23041;49.816;20.092;2022-08-23T07:29:19;4.00;;;3.70;;
37141;SDS011;23041;49.816;20.092;2022-08-23T07:31:48;4.80;;;4.08;;
37141;SDS011;23041;49.816;20.092;2022-08-23T07:34:19;5.00;;;4.47;;
37141;SDS011;23041;49.816;20.092;2022-08-23T07:36:47;5.00;;;4.60;;
37141;SDS011;23041;49.816;20.092;2022-08-23T07:39:15;5.00;;;4.60;;
37141;SDS011;23041;49.816;20.092;2022-08-23T07:41:43;4.70;;;4.10;;
37141;SDS011;23041;49.816;20.092;2022-08-23T07:44:11;4.50;;;3.98;;
37141;SDS011;23041;49.816;20.092;2022-08-23T07:46:39;4.35;;;3.95;;
37141;SDS011;23041;49.816;20.092;2022-08-23T07:51:36;4.35;;;4.05;;
37141;SDS011;23041;49.816;20.092;2022-08-23T07:54:06;4.70;;;4.30;;
37141;SDS011;23041;49.816;20.092;2022-08-23T07:56:35;5.35;;;4.15;;
37141;SDS011;23041;49.816;20.092;2022-08-23T07:59:03;4.22;;;3.90;;
37141;SDS011;23041;49.816;20.092;2022-08-23T08:01:30;4.28;;;3.98;;
37141;SDS011;23041;49.816;20.092;2022-08-23T08:03:57;4.22;;;3.92;;
37141;SDS011;23041;49.816;20.092;2022-08-23T08:06:31;4.40;;;4.10;;
37141;SDS011;23041;49.816;20.092;2022-08-23T08:09:00;3.77;;;3.52;;
37141;SDS011;23041;49.816;20.092;2022-08-23T08:11:29;4.80;;;4.40;;
37141;SDS011;23041;49.816;20.092;2022-08-23T08:13:57;4.47;;;4.22;;
37141;SDS011;23041;49.816;20.092;2022-08-23T08:16:25;5.08;;;3.65;;
37141;SDS011;23041;49.816;20.092;2022-08-23T08:18:57;4.10;;;3.70;;
37141;SDS011;23041;49.816;20.092;2022-08-23T08:21:25;4.25;;;3.95;;
37141;SDS011;23041;49.816;20.092;2022-08-23T08:23:53;4.62;;;4.22;;
37141;SDS011;23041;49.816;20.092;2022-08-23T08:26:21;5.05;;;4.67;;
37141;SDS011;23041;49.816;20.092;2022-08-23T08:28:48;4.58;;;4.28;;
37141;SDS011;23041;49.816;20.092;2022-08-23T08:31:16;5.10;;;4.70;;
37141;SDS011;23041;49.816;20.092;2022-08-23T08:33:43;5.20;;;4.80;;
37141;SDS011;23041;49.816;20.092;2022-08-23T08:36:26;4.83;;;4.53;;
37141;SDS011;23041;49.816;20.092;2022-08-23T08:38:56;4.70;;;4.40;;
37141;SDS011;23041;49.816;20.092;2022-08-23T08:41:39;9.68;;;7.53;;
37141;SDS011;23041;49.816;20.092;2022-08-23T08:44:41;5.05;;;4.65;;
37141;SDS011;23041;49.816;20.092;2022-08-23T08:50:23;5.62;;;5.12;;
37141;SDS011;23041;49.816;20.092;2022-08-23T08:53:05;6.05;;;5.08;;
37141;SDS011;23041;49.816;20.092;2022-08-23T08:55:42;6.00;;;5.60;;
37141;SDS011;23041;49.816;20.092;2022-08-23T08:58:12;5.92;;;5.53;;
37141;SDS011;23041;49.816;20.092;2022-08-23T09:00:41;6.12;;;5.50;;
37141;SDS011;23041;49.816;20.092;2022-08-23T09:03:09;5.60;;;5.08;;
37141;SDS011;23041;49.816;20.092;2022-08-23T09:06:10;5.72;;;5.22;;
37141;SDS011;23041;49.816;20.092;2022-08-23T09:17:04;5.70;;;5.20;;
37141;SDS011;23041;49.816;20.092;2022-08-23T09:19:54;5.90;;;5.40;;
37141;SDS011;23041;49.816;20.092;2022-08-23T09:22:29;5.03;;;4.70;;
37141;SDS011;23041;49.816;20.092;2022-08-23T09:24:55;6.97;;;5.35;;
37141;SDS011;23041;49.816;20.092;2022-08-23T09:27:23;5.62;;;5.22;;
37141;SDS011;23041;49.816;20.092;2022-08-23T09:29:59;5.75;;;5.08;;
37141;SDS011;23041;49.816;20.092;2022-08-23T09:32:29;5.55;;;4.87;;
37141;SDS011;23041;49.816;20.092;2022-08-23T09:37:50;5.50;;;5.00;;
37141;SDS011;23041;49.816;20.092;2022-08-23T09:40:43;5.53;;;5.12;;
37141;SDS011;23041;49.816;20.092;2022-08-23T09:48:42;5.62;;;5.22;;
37141;SDS011;23041;49.816;20.092;2022-08-23T09:54:07;6.92;;;5.15;;
37141;SDS011;23041;49.816;20.092;2022-08-23T09:56:55;4.78;;;4.37;;
37141;SDS011;23041;49.816;20.092;2022-08-23T09:59:39;4.58;;;4.28;;
37141;SDS011;23041;49.816;20.092;2022-08-23T10:02:24;4.83;;;4.45;;
37141;SDS011;23041;49.816;20.092;2022-08-23T10:07:32;4.70;;;4.40;;
37141;SDS011;23041;49.816;20.092;2022-08-23T10:10:12;5.72;;;4.87;;
37141;SDS011;23041;49.816;20.092;2022-08-23T10:12:45;5.70;;;5.08;;
37141;SDS011;23041;49.816;20.092;2022-08-23T10:15:12;5.10;;;4.80;;
37141;SDS011;23041;49.816;20.092;2022-08-23T10:17:47;4.85;;;4.55;;
37141;SDS011;23041;49.816;20.092;2022-08-23T10:20:28;4.40;;;4.03;;
37141;SDS011;23041;49.816;20.092;2022-08-23T10:25:39;4.55;;;4.25;;
37141;SDS011;23041;49.816;20.092;2022-08-23T10:37:26;5.15;;;4.80;;
37141;SDS011;23041;49.816;20.092;2022-08-23T10:51:01;4.97;;;4.67;;
37141;SDS011;23041;49.816;20.092;2022-08-23T10:53:36;4.50;;;4.17;;
37141;SDS011;23041;49.816;20.092;2022-08-23T10:56:12;4.67;;;4.37;;
37141;SDS011;23041;49.816;20.092;2022-08-23T10:58:52;4.10;;;3.80;;
37141;SDS011;23041;49.816;20.092;2022-08-23T11:07:39;3.85;;;3.65;;
37141;SDS011;23041;49.816;20.092;2022-08-23T11:09:56;4.25;;;3.95;;
37141;SDS011;23041;49.816;20.092;2022-08-23T11:13:04;4.28;;;3.92;;
37141;SDS011;23041;49.816;20.092;2022-08-23T11:15:31;4.65;;;4.35;;
37141;SDS011;23041;49.816;20.092;2022-08-23T11:23:46;5.92;;;4.42;;
37141;SDS011;23041;49.816;20.092;2022-08-23T11:34:49;4.60;;;4.30;;
37141;SDS011;23041;49.816;20.092;2022-08-23T11:37:47;5.42;;;4.80;;
37141;SDS011;23041;49.816;20.092;2022-08-23T11:43:30;5.42;;;5.03;;
37141;SDS011;23041;49.816;20.092;2022-08-23T12:06:46;4.92;;;4.30;;
37141;SDS011;23041;49.816;20.092;2022-08-23T12:09:58;5.40;;;4.90;;
37141;SDS011;23041;49.816;20.092;2022-08-23T12:19:52;9.18;;;5.17;;
37141;SDS011;23041;49.816;20.092;2022-08-23T12:22:25;5.65;;;5.25;;
37141;SDS011;23041;49.816;20.092;2022-08-23T12:24:59;5.97;;;5.30;;
37141;SDS011;23041;49.816;20.092;2022-08-23T12:27:30;5.60;;;5.10;;
37141;SDS011;23041;49.816;20.092;2022-08-23T12:30:16;6.22;;;5.70;;
37141;SDS011;23041;49.816;20.092;2022-08-23T12:33:02;5.75;;;5.03;;
37141;SDS011;23041;49.816;20.092;2022-08-23T12:42:17;5.83;;;5.33;;
37141;SDS011;23041;49.816;20.092;2022-08-23T12:44:22;5.92;;;5.17;;
37141;SDS011;23041;49.816;20.092;2022-08-23T12:46:51;5.25;;;4.85;;
37141;SDS011;23041;49.816;20.092;2022-08-23T12:49:27;6.22;;;5.72;;
37141;SDS011;23041;49.816;20.092;2022-08-23T12:51:58;6.05;;;5.60;;
37141;SDS011;23041;49.816;20.092;2022-08-23T12:54:41;5.92;;;5.12;;
37141;SDS011;23041;49.816;20.092;2022-08-23T12:57:16;5.42;;;5.03;;
37141;SDS011;23041;49.816;20.092;2022-08-23T13:02:26;5.60;;;5.20;;
37141;SDS011;23041;49.816;20.092;2022-08-23T13:04:57;5.78;;;5.28;;
37141;SDS011;23041;49.816;20.092;2022-08-23T13:07:31;5.90;;;5.50;;
37141;SDS011;23041;49.816;20.092;2022-08-23T13:09:57;6.08;;;5.58;;
37141;SDS011;23041;49.816;20.092;2022-08-23T13:12:24;5.75;;;5.30;;
37141;SDS011;23041;49.816;20.092;2022-08-23T13:14:53;5.85;;;5.15;;
37141;SDS011;23041;49.816;20.092;2022-08-23T13:22:34;5.60;;;5.20;;
37141;SDS011;23041;49.816;20.092;2022-08-23T13:33:27;6.20;;;5.55;;
37141;SDS011;23041;49.816;20.092;2022-08-23T13:35:38;5.72;;;4.95;;
37141;SDS011;23041;49.816;20.092;2022-08-23T13:43:31;6.00;;;5.50;;
37141;SDS011;23041;49.816;20.092;2022-08-23T13:51:40;6.67;;;6.03;;
37141;SDS011;23041;49.816;20.092;2022-08-23T13:54:11;6.47;;;5.90;;
37141;SDS011;23041;49.816;20.092;2022-08-23T13:56:45;5.83;;;5.35;;
37141;SDS011;23041;49.816;20.092;2022-08-23T13:59:26;6.37;;;5.80;;
37141;SDS011;23041;49.816;20.092;2022-08-23T14:02:03;6.92;;;6.33;;
37141;SDS011;23041;49.816;20.092;2022-08-23T14:04:37;7.00;;;6.50;;
37141;SDS011;23041;49.816;20.092;2022-08-23T14:07:04;6.83;;;6.33;;
37141;SDS011;23041;49.816;20.092;2022-08-23T14:09:31;6.92;;;6.42;;
37141;SDS011;23041;49.816;20.092;2022-08-23T14:12:00;7.47;;;6.87;;
37141;SDS011;23041;49.816;20.092;2022-08-23T14:14:30;7.17;;;6.58;;
37141;SDS011;23041;49.816;20.092;2022-08-23T14:16:59;7.87;;;6.85;;
37141;SDS011;23041;49.816;20.092;2022-08-23T14:19:27;7.55;;;6.85;;
37141;SDS011;23041;49.816;20.092;2022-08-23T14:21:55;7.90;;;7.30;;
37141;SDS011;23041;49.816;20.092;2022-08-23T14:24:22;8.33;;;7.55;;
37141;SDS011;23041;49.816;20.092;2022-08-23T14:26:49;8.48;;;7.70;;
37141;SDS011;23041;49.816;20.092;2022-08-23T14:29:15;8.03;;;7.37;;
37141;SDS011;23041;49.816;20.092;2022-08-23T14:31:42;7.55;;;6.97;;
37141;SDS011;23041;49.816;20.092;2022-08-23T14:34:09;8.03;;;7.33;;
37141;SDS011;23041;49.816;20.092;2022-08-23T14:36:36;8.50;;;7.85;;
37141;SDS011;23041;49.816;20.092;2022-08-23T14:39:03;7.30;;;6.80;;
37141;SDS011;23041;49.816;20.092;2022-08-23T14:41:29;7.60;;;7.03;;
37141;SDS011;23041;49.816;20.092;2022-08-23T14:43:56;8.75;;;8.00;;
37141;SDS011;23041;49.816;20.092;2022-08-23T14:46:25;8.95;;;8.25;;
37141;SDS011;23041;49.816;20.092;2022-08-23T14:48:51;8.10;;;7.50;;
37141;SDS011;23041;49.816;20.092;2022-08-23T14:51:22;8.33;;;7.70;;
37141;SDS011;23041;49.816;20.092;2022-08-23T14:53:53;8.48;;;7.78;;
37141;SDS011;23041;49.816;20.092;2022-08-23T14:56:19;8.85;;;7.97;;
37141;SDS011;23041;49.816;20.092;2022-08-23T14:58:47;8.65;;;7.80;;
37141;SDS011;23041;49.816;20.092;2022-08-23T15:01:15;8.00;;;7.40;;
37141;SDS011;23041;49.816;20.092;2022-08-23T15:03:43;8.25;;;7.58;;
37141;SDS011;23041;49.816;20.092;2022-08-23T15:06:10;7.95;;;7.35;;
37141;SDS011;23041;49.816;20.092;2022-08-23T15:08:38;8.20;;;7.50;;
37141;SDS011;23041;49.816;20.092;2022-08-23T15:11:06;9.53;;;8.63;;
37141;SDS011;23041;49.816;20.092;2022-08-23T15:13:34;8.60;;;7.90;;
37141;SDS011;23041;49.816;20.092;2022-08-23T15:16:03;8.95;;;8.25;;
37141;SDS011;23041;49.816;20.092;2022-08-23T15:18:32;8.88;;;8.08;;
37141;SDS011;23041;49.816;20.092;2022-08-23T15:21:00;8.25;;;7.47;;
37141;SDS011;23041;49.816;20.092;2022-08-23T15:23:27;8.88;;;8.10;;
37141;SDS011;23041;49.816;20.092;2022-08-23T15:25:54;9.10;;;8.38;;
37141;SDS011;23041;49.816;20.092;2022-08-23T15:28:21;9.20;;;8.43;;
37141;SDS011;23041;49.816;20.092;2022-08-23T15:30:49;8.20;;;7.60;;
37141;SDS011;23041;49.816;20.092;2022-08-23T15:33:17;8.95;;;8.25;;
37141;SDS011;23041;49.816;20.092;2022-08-23T15:35:45;9.05;;;8.35;;
37141;SDS011;23041;49.816;20.092;2022-08-23T15:38:17;8.63;;;7.92;;
37141;SDS011;23041;49.816;20.092;2022-08-23T15:40:47;8.73;;;8.03;;
37141;SDS011;23041;49.816;20.092;2022-08-23T15:43:16;9.13;;;8.35;;
37141;SDS011;23041;49.816;20.092;2022-08-23T15:45:44;10.38;;;9.33;;
37141;SDS011;23041;49.816;20.092;2022-08-23T15:48:12;10.93;;;8.35;;
37141;SDS011;23041;49.816;20.092;2022-08-23T15:50:48;9.68;;;8.75;;
37141;SDS011;23041;49.816;20.092;2022-08-23T15:53:16;10.28;;;9.38;;
37141;SDS011;23041;49.816;20.092;2022-08-23T15:55:43;10.13;;;9.13;;
37141;SDS011;23041;49.816;20.092;2022-08-23T15:58:15;9.48;;;8.58;;
37141;SDS011;23041;49.816;20.092;2022-08-23T16:00:46;9.58;;;8.85;;
37141;SDS011;23041;49.816;20.092;2022-08-23T16:03:15;10.75;;;9.75;;
37141;SDS011;23041;49.816;20.092;2022-08-23T16:05:43;10.40;;;9.43;;
37141;SDS011;23041;49.816;20.092;2022-08-23T16:08:15;9.55;;;8.73;;
37141;SDS011;23041;49.816;20.092;2022-08-23T16:10:55;10.05;;;9.25;;
37141;SDS011;23041;49.816;20.092;2022-08-23T16:13:22;10.53;;;9.53;;
37141;SDS011;23041;49.816;20.092;2022-08-23T16:15:50;10.87;;;9.60;;
37141;SDS011;23041;49.816;20.092;2022-08-23T16:18:17;13.78;;;9.90;;
37141;SDS011;23041;49.816;20.092;2022-08-23T16:20:44;11.35;;;10.13;;
37141;SDS011;23041;49.816;20.092;2022-08-23T16:23:11;11.12;;;9.80;;
37141;SDS011;23041;49.816;20.092;2022-08-23T16:25:37;12.05;;;10.70;;
37141;SDS011;23041;49.816;20.092;2022-08-23T16:28:05;11.48;;;10.55;;
37141;SDS011;23041;49.816;20.092;2022-08-23T16:30:33;12.58;;;11.38;;
37141;SDS011;23041;49.816;20.092;2022-08-23T16:33:00;11.28;;;10.30;;
37141;SDS011;23041;49.816;20.092;2022-08-23T16:35:26;11.35;;;10.45;;
37141;SDS011;23041;49.816;20.092;2022-08-23T16:37:53;12.85;;;11.75;;
37141;SDS011;23041;49.816;20.092;2022-08-23T16:40:19;13.22;;;11.95;;
37141;SDS011;23041;49.816;20.092;2022-08-23T16:42:46;13.18;;;12.07;;
37141;SDS011;23041;49.816;20.092;2022-08-23T16:45:13;14.25;;;12.65;;
37141;SDS011;23041;49.816;20.092;2022-08-23T16:47:40;13.18;;;11.97;;
37141;SDS011;23041;49.816;20.092;2022-08-23T16:50:08;14.50;;;11.90;;
37141;SDS011;23041;49.816;20.092;2022-08-23T16:52:35;12.53;;;11.28;;
37141;SDS011;23041;49.816;20.092;2022-08-23T16:55:05;13.38;;;12.10;;
37141;SDS011;23041;49.816;20.092;2022-08-23T16:57:36;13.60;;;12.35;;
37141;SDS011;23041;49.816;20.092;2022-08-23T17:00:04;17.42;;;13.13;;
37141;SDS011;23041;49.816;20.092;2022-08-23T17:02:35;14.58;;;13.20;;
37141;SDS011;23041;49.816;20.092;2022-08-23T17:05:04;14.60;;;12.90;;
37141;SDS011;23041;49.816;20.092;2022-08-23T17:07:34;14.20;;;12.88;;
37141;SDS011;23041;49.816;20.092;2022-08-23T17:10:00;13.75;;;12.45;;
37141;SDS011;23041;49.816;20.092;2022-08-23T17:12:28;20.15;;;14.33;;
37141;SDS011;23041;49.816;20.092;2022-08-23T17:14:56;14.58;;;13.25;;
37141;SDS011;23041;49.816;20.092;2022-08-23T17:17:23;14.53;;;13.08;;